createdAt,value
2023-05-08T00:00:15.492Z,100.00
2023-05-08T00:02:46.662Z,100.00
2023-05-08T00:05:14.676Z,100.00
2023-05-08T00:07:43.545Z,100.00
2023-05-08T00:10:12.656Z,100.00
2023-05-08T00:12:40.703Z,100.00
2023-05-08T00:15:10.780Z,100.00
2023-05-08T00:17:40.001Z,100.00
2023-05-08T00:20:09.021Z,100.00
2023-05-08T00:22:36.757Z,100.00
2023-05-08T00:25:05.865Z,100.00
2023-05-08T00:27:33.653Z,100.00
2023-05-08T00:30:01.729Z,100.00
2023-05-08T00:32:30.012Z,100.00
2023-05-08T00:34:59.620Z,100.00
2023-05-08T00:37:27.598Z,100.00
2023-05-08T00:39:55.879Z,100.00
2023-05-08T00:42:23.794Z,100.00
2023-05-08T00:44:51.644Z,100.00
2023-05-08T00:47:19.816Z,100.00
2023-05-08T00:49:47.793Z,100.00
2023-05-08T00:52:17.269Z,100.00
2023-05-08T00:54:45.499Z,100.00
2023-05-08T00:57:13.582Z,100.00
2023-05-08T00:59:41.847Z,100.00
2023-05-08T01:02:09.970Z,100.00
2023-05-08T01:04:38.312Z,100.00
2023-05-08T01:07:06.167Z,100.00
2023-05-08T01:09:35.821Z,100.00
2023-05-08T01:12:08.700Z,100.00
2023-05-08T01:14:49.190Z,100.00
2023-05-08T01:17:18.522Z,100.00
2023-05-08T01:20:06.481Z,100.00
2023-05-08T01:22:58.548Z,100.00
2023-05-08T01:26:08.305Z,100.00
2023-05-08T01:29:01.720Z,100.00
2023-05-08T01:31:33.400Z,100.00
2023-05-08T01:34:06.019Z,100.00
2023-05-08T01:36:35.586Z,100.00
2023-05-08T01:39:09.343Z,100.00
2023-05-08T01:41:37.217Z,100.00
2023-05-08T01:44:10.522Z,100.00
2023-05-08T01:46:38.397Z,100.00
2023-05-08T01:49:09.280Z,100.00
2023-05-08T01:51:39.688Z,100.00
2023-05-08T01:54:10.367Z,100.00
2023-05-08T01:56:38.485Z,100.00
2023-05-08T01:59:06.341Z,100.00
2023-05-08T02:01:34.632Z,100.00
2023-05-08T02:04:02.535Z,100.00
2023-05-08T02:06:32.382Z,100.00
2023-05-08T02:09:03.396Z,100.00
2023-05-08T02:11:32.960Z,100.00
2023-05-08T02:14:01.595Z,100.00
2023-05-08T02:16:29.823Z,100.00
2023-05-08T02:19:00.150Z,100.00
2023-05-08T02:21:28.064Z,100.00
2023-05-08T02:23:57.925Z,100.00
2023-05-08T02:26:25.817Z,100.00
2023-05-08T02:28:56.164Z,100.00
2023-05-08T02:31:24.164Z,100.00
2023-05-08T02:33:52.011Z,100.00
2023-05-08T02:36:20.327Z,100.00
2023-05-08T02:38:49.438Z,100.00
2023-05-08T02:41:19.060Z,100.00
2023-05-08T02:43:46.984Z,100.00
2023-05-08T02:46:16.438Z,100.00
2023-05-08T02:48:48.988Z,100.00
2023-05-08T02:51:21.232Z,100.00
2023-05-08T02:53:52.507Z,100.00
2023-05-08T02:56:29.351Z,100.00
2023-05-08T02:59:00.839Z,100.00
2023-05-08T03:01:30.187Z,100.00
2023-05-08T03:04:01.102Z,100.00
2023-05-08T03:06:28.841Z,100.00
2023-05-08T03:08:56.794Z,100.00
2023-05-08T03:11:29.646Z,100.00
2023-05-08T03:13:58.303Z,100.00
2023-05-08T03:16:26.999Z,100.00
2023-05-08T03:18:56.139Z,100.00
2023-05-08T03:21:24.074Z,100.00
2023-05-08T03:23:52.549Z,100.00
2023-05-08T03:26:21.287Z,100.00
2023-05-08T03:28:50.945Z,100.00
2023-05-08T03:31:22.584Z,100.00
2023-05-08T03:33:52.030Z,100.00
2023-05-08T03:36:19.932Z,100.00
2023-05-08T03:38:48.015Z,100.00
2023-05-08T03:41:15.747Z,100.00
2023-05-08T03:43:43.351Z,100.00
2023-05-08T03:46:12.437Z,100.00
2023-05-08T03:48:40.230Z,100.00
2023-05-08T03:51:07.957Z,100.00
2023-05-08T03:53:38.513Z,100.00
2023-05-08T03:56:06.414Z,100.00
2023-05-08T03:58:35.762Z,100.00
2023-05-08T04:01:05.080Z,100.00
2023-05-08T04:03:38.056Z,100.00
2023-05-08T04:06:08.175Z,100.00
2023-05-08T04:08:38.073Z,100.00
2023-05-08T04:11:07.190Z,100.00
2023-05-08T04:13:36.823Z,100.00
2023-05-08T04:16:06.736Z,100.00
2023-05-08T04:18:36.662Z,100.00
2023-05-08T04:21:04.515Z,100.00
2023-05-08T04:23:32.205Z,100.00
2023-05-08T04:25:59.941Z,100.00
2023-05-08T04:28:28.945Z,100.00
2023-05-08T04:30:56.523Z,100.00
2023-05-08T04:33:24.174Z,100.00
2023-05-08T04:36:17.402Z,100.00
2023-05-08T04:38:51.697Z,100.00
2023-05-08T04:41:19.360Z,100.00
2023-05-08T04:43:47.181Z,100.00
2023-05-08T04:46:15.141Z,100.00
2023-05-08T04:48:42.776Z,100.00
2023-05-08T04:51:11.869Z,100.00
2023-05-08T04:53:39.649Z,100.00
2023-05-08T04:56:07.504Z,100.00
2023-05-08T04:58:35.465Z,100.00
2023-05-08T05:01:03.505Z,100.00
2023-05-08T05:03:32.228Z,100.00
2023-05-08T05:05:59.981Z,100.00
2023-05-08T05:08:29.348Z,100.00
2023-05-08T05:10:58.125Z,100.00
2023-05-08T05:13:26.094Z,100.00
2023-05-08T05:15:54.489Z,100.00
2023-05-08T05:18:25.546Z,100.00
2023-05-08T05:20:54.841Z,100.00
2023-05-08T05:23:22.839Z,100.00
2023-05-08T05:25:51.809Z,100.00
2023-05-08T05:28:19.480Z,100.00
2023-05-08T05:30:50.763Z,100.00
2023-05-08T05:33:18.604Z,100.00
2023-05-08T05:35:48.700Z,100.00
2023-05-08T05:38:22.313Z,100.00
2023-05-08T05:40:50.422Z,100.00
2023-05-08T05:43:19.912Z,100.00
2023-05-08T05:45:47.927Z,100.00
2023-05-08T05:48:15.861Z,100.00
2023-05-08T05:50:43.767Z,100.00
2023-05-08T05:53:13.042Z,100.00
2023-05-08T05:55:41.357Z,100.00
2023-05-08T05:58:09.240Z,100.00
2023-05-08T06:00:38.286Z,100.00
2023-05-08T06:03:06.038Z,100.00
2023-05-08T06:05:35.421Z,100.00
2023-05-08T06:08:03.141Z,100.00
2023-05-08T06:10:30.824Z,100.00
2023-05-08T06:12:58.624Z,100.00
2023-05-08T06:15:26.924Z,100.00
2023-05-08T06:17:56.655Z,100.00
2023-05-08T06:20:25.582Z,100.00
2023-05-08T06:22:54.205Z,100.00
2023-05-08T06:25:21.784Z,100.00
2023-05-08T06:27:49.565Z,100.00
2023-05-08T06:30:17.157Z,100.00
2023-05-08T06:32:44.735Z,100.00
2023-05-08T06:35:15.544Z,100.00
2023-05-08T06:37:43.215Z,100.00
2023-05-08T06:40:12.888Z,100.00
2023-05-08T06:42:40.680Z,100.00
2023-05-08T06:45:10.582Z,100.00
2023-05-08T06:47:38.458Z,100.00
2023-05-08T06:50:06.814Z,100.00
2023-05-08T06:52:35.801Z,100.00
2023-05-08T06:55:03.371Z,100.00
2023-05-08T06:57:31.219Z,100.00
2023-05-08T06:59:58.771Z,100.00
2023-05-08T07:02:26.496Z,100.00
2023-05-08T07:04:54.125Z,100.00
2023-05-08T07:07:21.700Z,100.00
2023-05-08T07:09:50.644Z,100.00
2023-05-08T07:12:18.255Z,100.00
2023-05-08T07:14:45.845Z,100.00
2023-05-08T07:17:13.358Z,100.00
2023-05-08T07:19:41.488Z,100.00
2023-05-08T07:22:09.025Z,100.00
2023-05-08T07:24:36.584Z,100.00
2023-05-08T07:27:05.481Z,100.00
2023-05-08T07:29:33.051Z,100.00
2023-05-08T07:32:00.667Z,100.00
2023-05-08T07:34:28.327Z,100.00
2023-05-08T07:36:55.943Z,100.00
2023-05-08T07:39:23.493Z,100.00
2023-05-08T07:41:51.322Z,100.00
2023-05-08T07:44:20.236Z,100.00
2023-05-08T07:46:47.827Z,100.00
2023-05-08T07:49:15.355Z,100.00
2023-05-08T07:51:42.896Z,100.00
2023-05-08T07:54:13.548Z,100.00
2023-05-08T07:56:41.319Z,100.00
2023-05-08T07:59:08.881Z,100.00
2023-05-08T08:01:37.879Z,100.00
2023-05-08T08:04:05.999Z,100.00
2023-05-08T08:06:39.809Z,100.00
2023-05-08T08:09:07.420Z,100.00
2023-05-08T08:11:34.962Z,100.00
2023-05-08T08:14:02.698Z,100.00
2023-05-08T08:16:33.272Z,100.00
2023-05-08T08:19:02.205Z,100.00
2023-05-08T08:21:29.914Z,100.00
2023-05-08T08:23:58.221Z,100.00
2023-05-08T08:26:26.846Z,99.19
2023-05-08T08:28:54.377Z,96.29
2023-05-08T08:31:21.981Z,92.42
2023-05-08T08:33:49.586Z,93.77
2023-05-08T08:36:19.794Z,94.86
2023-05-08T08:38:47.333Z,92.32
2023-05-08T08:41:15.157Z,93.54
2023-05-08T08:43:43.428Z,90.80
2023-05-08T08:46:12.210Z,94.31
2023-05-08T08:48:39.810Z,92.88
2023-05-08T08:51:07.846Z,91.07
2023-05-08T08:53:39.997Z,89.95
2023-05-08T08:56:08.425Z,91.29
2023-05-08T08:58:39.100Z,88.17
2023-05-08T09:01:06.875Z,86.53
2023-05-08T09:03:34.565Z,85.44
2023-05-08T09:06:02.263Z,82.73
2023-05-08T09:08:29.939Z,87.10
2023-05-08T09:10:59.094Z,83.39
2023-05-08T09:13:26.942Z,82.90
2023-05-08T09:15:54.541Z,78.43
2023-05-08T09:18:22.109Z,81.39
2023-05-08T09:20:58.248Z,76.01
2023-05-08T09:23:26.354Z,83.40
2023-05-08T09:25:54.006Z,78.30
2023-05-08T09:28:24.752Z,80.56
2023-05-08T09:30:53.021Z,78.04
2023-05-08T09:33:20.595Z,78.56
2023-05-08T09:35:51.412Z,78.06
2023-05-08T09:38:34.640Z,79.65
2023-05-08T09:41:08.830Z,79.37
2023-05-08T09:43:39.271Z,78.43
2023-05-08T09:46:20.690Z,77.51
2023-05-08T09:48:48.326Z,76.70
2023-05-08T09:51:15.871Z,75.89
2023-05-08T09:53:44.745Z,69.04
2023-05-08T09:56:12.344Z,73.08
2023-05-08T09:58:40.545Z,70.88
2023-05-08T10:01:10.505Z,69.39
2023-05-08T10:03:47.934Z,67.57
2023-05-08T10:06:15.839Z,72.77
2023-05-08T10:08:44.777Z,69.93
2023-05-08T10:11:16.164Z,67.13
2023-05-08T10:13:43.897Z,71.03
2023-05-08T10:16:13.643Z,67.88
2023-05-08T10:18:41.325Z,68.73
2023-05-08T10:21:11.593Z,67.93
2023-05-08T10:23:39.146Z,65.87
2023-05-08T10:26:08.761Z,66.43
2023-05-08T10:28:41.657Z,65.87
2023-05-08T10:31:09.325Z,66.30
2023-05-08T10:33:36.966Z,69.74
2023-05-08T10:36:06.886Z,66.55
2023-05-08T10:38:36.797Z,65.94
2023-05-08T10:41:04.433Z,66.03
2023-05-08T10:43:33.958Z,66.82
2023-05-08T10:46:03.459Z,65.22
2023-05-08T10:48:34.835Z,63.33
2023-05-08T10:51:04.106Z,61.98
2023-05-08T10:53:33.111Z,65.27
2023-05-08T10:56:00.649Z,64.83
2023-05-08T10:58:31.688Z,64.28
2023-05-08T11:01:16.349Z,63.92
2023-05-08T11:03:50.722Z,67.35
2023-05-08T11:06:19.276Z,67.67
2023-05-08T11:08:54.519Z,66.82
2023-05-08T11:11:29.396Z,67.65
2023-05-08T11:13:59.928Z,67.07
2023-05-08T11:16:46.598Z,61.44
2023-05-08T11:19:21.751Z,61.27
2023-05-08T11:22:14.199Z,60.27
2023-05-08T11:24:44.693Z,56.58
2023-05-08T11:27:15.270Z,54.50
2023-05-08T11:29:44.518Z,60.02
2023-05-08T11:32:12.203Z,57.21
2023-05-08T11:34:47.595Z,53.27
2023-05-08T11:37:22.097Z,54.64
2023-05-08T11:39:49.697Z,54.13
2023-05-08T11:42:34.440Z,53.28
2023-05-08T11:45:08.137Z,51.15
2023-05-08T11:47:38.743Z,51.88
2023-05-08T11:50:08.400Z,54.36
2023-05-08T11:52:36.038Z,51.35
2023-05-08T11:55:07.121Z,49.59
2023-05-08T11:57:34.687Z,51.62
2023-05-08T12:00:07.833Z,49.44
2023-05-08T12:02:39.248Z,51.00
2023-05-08T12:05:09.001Z,51.23
2023-05-08T12:07:43.810Z,45.58
2023-05-08T12:10:11.854Z,49.72
2023-05-08T12:12:39.778Z,49.69
2023-05-08T12:15:09.186Z,50.66
2023-05-08T12:17:36.965Z,53.27
2023-05-08T12:20:13.744Z,53.21
2023-05-08T12:22:41.666Z,50.32
2023-05-08T12:25:10.052Z,53.94
2023-05-08T12:27:39.778Z,55.32
2023-05-08T12:30:08.663Z,51.54
2023-05-08T12:32:36.583Z,48.91
2023-05-08T12:35:04.168Z,47.45
2023-05-08T12:37:33.146Z,47.18
2023-05-08T12:40:04.930Z,52.72
2023-05-08T12:42:47.731Z,48.07
2023-05-08T12:45:18.676Z,49.27
2023-05-08T12:47:49.331Z,50.49
2023-05-08T12:50:17.246Z,51.94
2023-05-08T12:52:46.277Z,50.06
2023-05-08T12:55:26.610Z,52.96
2023-05-08T12:58:00.042Z,57.23
2023-05-08T13:00:37.954Z,51.25
2023-05-08T13:03:08.669Z,54.95
2023-05-08T13:05:36.752Z,50.80
2023-05-08T13:08:06.089Z,52.21
2023-05-08T13:10:46.606Z,53.65
2023-05-08T13:13:14.378Z,50.56
2023-05-08T13:15:42.110Z,52.87
2023-05-08T13:18:10.455Z,54.92
2023-05-08T13:20:38.268Z,48.24
2023-05-08T13:23:07.245Z,50.83
2023-05-08T13:25:37.854Z,52.65
2023-05-08T13:28:08.601Z,54.65
2023-05-08T13:30:36.662Z,55.22
2023-05-08T13:33:04.688Z,54.17
2023-05-08T13:35:32.365Z,55.17
2023-05-08T13:37:59.973Z,57.02
2023-05-08T13:40:28.884Z,56.08
2023-05-08T13:42:59.964Z,56.06
2023-05-08T13:45:30.547Z,54.84
2023-05-08T13:47:58.293Z,54.10
2023-05-08T13:50:25.871Z,54.01
2023-05-08T13:52:55.012Z,51.10
2023-05-08T13:55:23.319Z,55.83
2023-05-08T13:57:52.588Z,54.58
2023-05-08T14:00:20.668Z,54.36
2023-05-08T14:02:50.665Z,59.47
2023-05-08T14:05:22.684Z,61.78
2023-05-08T14:07:51.402Z,59.68
2023-05-08T14:10:19.012Z,58.10
2023-05-08T14:12:46.816Z,58.60
2023-05-08T14:15:16.190Z,58.51
2023-05-08T14:17:44.066Z,60.43
2023-05-08T14:20:14.620Z,56.90
2023-05-08T14:22:53.848Z,56.28
2023-05-08T14:25:21.955Z,56.30
2023-05-08T14:27:52.239Z,59.27
2023-05-08T14:30:21.836Z,59.70
2023-05-08T14:32:49.566Z,55.28
2023-05-08T14:35:17.269Z,53.60
2023-05-08T14:37:47.361Z,57.48
2023-05-08T14:40:15.133Z,57.19
2023-05-08T14:42:52.585Z,57.99
2023-05-08T14:45:26.462Z,59.82
2023-05-08T14:47:55.489Z,58.30
2023-05-08T14:50:24.331Z,57.45
2023-05-08T14:52:54.814Z,58.33
2023-05-08T14:55:25.257Z,58.86
2023-05-08T14:57:55.469Z,60.91
2023-05-08T15:00:24.267Z,59.44
2023-05-08T15:02:51.930Z,62.44
2023-05-08T15:05:21.074Z,60.99
2023-05-08T15:07:50.947Z,62.87
2023-05-08T15:10:18.592Z,61.16
2023-05-08T15:12:46.307Z,63.86
2023-05-08T15:15:14.308Z,61.51
2023-05-08T15:17:42.330Z,59.58
2023-05-08T15:20:10.660Z,57.88
2023-05-08T15:22:40.731Z,58.67
2023-05-08T15:25:16.328Z,59.70
2023-05-08T15:27:44.428Z,57.59
2023-05-08T15:30:12.469Z,61.01
2023-05-08T15:32:43.425Z,59.31
2023-05-08T15:35:11.220Z,58.02
2023-05-08T15:37:40.118Z,57.17
2023-05-08T15:40:08.164Z,56.90
2023-05-08T15:42:38.826Z,57.23
2023-05-08T15:45:06.731Z,58.40
2023-05-08T15:47:34.321Z,60.06
2023-05-08T15:50:02.051Z,60.03
2023-05-08T15:52:29.618Z,58.17
2023-05-08T15:54:58.578Z,62.34
2023-05-08T15:57:27.112Z,62.01
2023-05-08T15:59:57.418Z,64.71
2023-05-08T16:02:28.046Z,63.99
2023-05-08T16:04:55.797Z,60.18
2023-05-08T16:07:27.007Z,62.77
2023-05-08T16:09:54.712Z,60.19
2023-05-08T16:12:23.632Z,61.29
2023-05-08T16:14:51.285Z,60.29
2023-05-08T16:17:18.859Z,60.76
2023-05-08T16:19:48.834Z,60.84
2023-05-08T16:22:16.615Z,62.83
2023-05-08T16:24:44.239Z,63.14
2023-05-08T16:27:12.456Z,63.74
2023-05-08T16:29:41.438Z,60.54
2023-05-08T16:32:10.175Z,62.05
2023-05-08T16:34:38.496Z,62.24
2023-05-08T16:37:06.477Z,61.01
2023-05-08T16:39:34.041Z,61.94
2023-05-08T16:42:02.005Z,60.60
2023-05-08T16:44:32.025Z,61.51
2023-05-08T16:47:01.169Z,61.48
2023-05-08T16:49:28.762Z,62.93
2023-05-08T16:51:56.611Z,62.04
2023-05-08T16:54:24.344Z,60.35
2023-05-08T16:56:53.198Z,60.43
2023-05-08T16:59:20.872Z,62.38
2023-05-08T17:01:51.500Z,60.35
2023-05-08T17:04:20.807Z,59.95
2023-05-08T17:06:48.357Z,57.85
2023-05-08T17:10:21.943Z,59.85
2023-05-08T17:13:06.052Z,59.49
2023-05-08T17:15:53.795Z,58.93
2023-05-08T17:18:58.529Z,57.26
2023-05-08T17:21:54.781Z,60.06
2023-05-08T17:25:01.308Z,62.88
2023-05-08T17:28:17.858Z,61.96
2023-05-08T17:51:04.115Z,67.56
2023-05-08T17:53:26.251Z,66.07
2023-05-08T17:53:31.753Z,67.00
2023-05-08T17:55:59.629Z,68.42
2023-05-08T17:58:27.250Z,68.42
2023-05-08T18:00:56.088Z,68.59
2023-05-08T18:03:25.419Z,66.82
2023-05-08T18:05:57.917Z,65.25
2023-05-08T18:08:25.527Z,64.28
2023-05-08T18:10:53.293Z,62.37
2023-05-08T18:13:30.629Z,62.80
2023-05-08T18:16:01.120Z,63.57
2023-05-08T18:18:31.694Z,63.11
2023-05-08T18:21:04.093Z,62.76
2023-05-08T18:23:34.323Z,62.84
2023-05-08T18:26:07.740Z,62.19
2023-05-08T18:28:41.178Z,64.00
2023-05-08T18:31:16.413Z,63.53
2023-05-08T18:33:53.486Z,64.65
2023-05-08T18:36:21.097Z,65.81
2023-05-08T18:38:48.847Z,69.81
2023-05-08T18:41:16.965Z,74.37
2023-05-08T18:43:47.129Z,80.91
2023-05-08T18:49:09.732Z,85.12
2023-05-08T18:51:44.784Z,86.85
2023-05-08T18:54:12.908Z,87.50
2023-05-08T18:56:46.033Z,88.01
2023-05-08T18:59:18.993Z,90.32
2023-05-08T19:01:46.781Z,90.86
2023-05-08T19:04:30.744Z,92.88
2023-05-08T19:07:03.901Z,97.75
2023-05-08T19:09:37.789Z,97.94
2023-05-08T19:12:07.348Z,97.57
2023-05-08T19:14:43.656Z,100.00
2023-05-08T19:17:11.409Z,100.00
2023-05-08T19:19:46.151Z,100.00
2023-05-08T19:22:22.075Z,100.00
2023-05-08T19:24:49.927Z,100.00
2023-05-08T19:27:18.556Z,100.00
2023-05-08T19:29:48.542Z,100.00
2023-05-08T19:32:18.994Z,100.00
2023-05-08T19:34:48.213Z,100.00
2023-05-08T19:37:16.256Z,100.00
2023-05-08T19:39:44.218Z,100.00
2023-05-08T19:42:14.054Z,100.00
2023-05-08T19:44:44.432Z,100.00
2023-05-08T19:47:17.560Z,100.00
2023-05-08T19:53:08.111Z,100.00
2023-05-08T19:55:39.836Z,100.00
2023-05-08T19:58:07.523Z,100.00
2023-05-08T20:00:37.103Z,100.00
2023-05-08T20:03:07.280Z,100.00
2023-05-08T20:05:38.264Z,100.00
2023-05-08T20:08:07.862Z,100.00
2023-05-08T20:10:39.536Z,100.00
2023-05-08T20:13:10.030Z,100.00
2023-05-08T20:15:37.886Z,100.00
2023-05-08T20:18:11.553Z,100.00
2023-05-08T20:20:39.254Z,100.00
2023-05-08T20:23:10.382Z,100.00
2023-05-08T20:25:46.052Z,100.00
2023-05-08T20:28:16.301Z,100.00
2023-05-08T20:30:45.804Z,100.00
2023-05-08T20:33:13.587Z,100.00
2023-05-08T20:35:41.195Z,100.00
2023-05-08T20:38:11.969Z,100.00
2023-05-08T20:40:44.335Z,100.00
2023-05-08T20:43:13.340Z,100.00
2023-05-08T20:45:43.314Z,100.00
2023-05-08T20:48:11.050Z,100.00
2023-05-08T20:50:38.747Z,97.66
2023-05-08T20:53:06.301Z,96.71
2023-05-08T20:55:34.036Z,95.94
2023-05-08T20:58:02.019Z,94.60
2023-05-08T21:00:31.204Z,94.39
2023-05-08T21:02:58.864Z,92.85
2023-05-08T21:05:26.725Z,91.86
2023-05-08T21:07:58.509Z,91.84
2023-05-08T21:10:32.124Z,93.54
2023-05-08T21:13:01.655Z,92.95
2023-05-08T21:15:31.201Z,92.92
2023-05-08T21:17:58.879Z,93.43
2023-05-08T21:20:26.459Z,92.79
2023-05-08T21:22:54.133Z,91.68
2023-05-08T21:25:22.279Z,91.00
2023-05-08T21:27:50.106Z,92.15
2023-05-08T21:30:17.890Z,92.53
2023-05-08T21:33:32.320Z,92.34
2023-05-08T21:36:01.389Z,93.74
2023-05-08T21:38:28.980Z,93.74
2023-05-08T21:40:56.679Z,94.18
2023-05-08T21:43:24.308Z,93.96
2023-05-08T21:45:51.912Z,94.76
2023-05-08T21:48:19.554Z,94.55
2023-05-08T21:50:47.165Z,95.70
2023-05-08T21:53:16.101Z,95.83
2023-05-08T21:55:43.717Z,95.69
2023-05-08T21:58:11.452Z,95.96
2023-05-08T22:00:39.029Z,97.21
2023-05-08T22:03:06.762Z,97.65
2023-05-08T22:05:34.521Z,98.00
2023-05-08T22:08:02.092Z,98.29
2023-05-08T22:10:31.054Z,97.77
2023-05-08T22:12:58.870Z,98.74
2023-05-08T22:15:30.303Z,100.00
2023-05-08T22:17:58.750Z,100.00
2023-05-08T22:20:26.607Z,100.00
2023-05-08T22:22:54.355Z,100.00
2023-05-08T22:25:22.433Z,100.00
2023-05-08T22:27:51.422Z,100.00
2023-05-08T22:30:19.454Z,100.00
2023-05-08T22:32:47.853Z,100.00
2023-05-08T22:35:15.826Z,100.00
2023-05-08T22:37:43.530Z,100.00
2023-05-08T22:40:11.402Z,100.00
2023-05-08T22:42:39.013Z,100.00
2023-05-08T22:45:08.738Z,100.00
2023-05-08T22:47:36.441Z,100.00
2023-05-08T22:50:08.323Z,100.00
2023-05-08T22:52:36.142Z,100.00
2023-05-08T22:55:03.863Z,100.00
2023-05-08T22:57:31.467Z,100.00
2023-05-08T22:59:59.055Z,100.00
2023-05-08T23:02:28.334Z,100.00
2023-05-08T23:04:56.421Z,100.00
2023-05-08T23:07:24.062Z,100.00
2023-05-08T23:09:51.614Z,100.00
2023-05-08T23:12:19.370Z,100.00
2023-05-08T23:14:46.934Z,100.00
2023-05-08T23:17:14.811Z,100.00
2023-05-08T23:19:45.306Z,100.00
2023-05-08T23:22:13.182Z,100.00
2023-05-08T23:24:40.779Z,100.00
2023-05-08T23:27:08.427Z,100.00
2023-05-08T23:29:36.061Z,100.00
2023-05-08T23:32:03.577Z,100.00
2023-05-08T23:34:31.206Z,100.00
2023-05-08T23:37:01.138Z,100.00
2023-05-08T23:39:28.697Z,100.00
2023-05-08T23:41:56.254Z,100.00
2023-05-08T23:44:23.883Z,100.00
2023-05-08T23:46:51.434Z,100.00
2023-05-08T23:49:19.124Z,100.00
2023-05-08T23:51:46.664Z,100.00
2023-05-08T23:54:15.889Z,100.00
2023-05-08T23:56:43.523Z,100.00
2023-05-08T23:59:14.294Z,100.00
